createdAt,value
2022-10-19T00:00:09.747Z,12.092689825459866
2022-10-19T00:06:38.167Z,12.056227137332776
2022-10-19T00:13:06.185Z,12.051098061245819
2022-10-19T00:19:34.775Z,12.062744303929765
2022-10-19T00:26:19.592Z,12.031044235994983
2022-10-19T00:32:47.874Z,11.983132577341136
2022-10-19T00:39:16.365Z,12.034123510660535
2022-10-19T00:49:30.785Z,12.083972617056858
2022-10-19T00:55:59.518Z,12.087380460911373
2022-10-19T01:02:28.749Z,12.049331103678929
2022-10-19T01:08:57.929Z,12.092359296613713
2022-10-19T01:21:45.538Z,12.078782138377926
2022-10-19T01:28:30.940Z,12.059627795777592
2022-10-19T01:35:00.358Z,12.02433110367893
2022-10-19T01:41:29.093Z,12.030023254598664
2022-10-19T01:50:33.406Z,12.053816105769231
2022-10-19T02:00:16.633Z,12.057940530936454
2022-10-19T02:12:24.824Z,12.016259928929767
2022-10-19T02:23:24.393Z,12.01513639214047
2022-10-19T02:29:57.744Z,11.99136901651338
2022-10-19T02:36:25.847Z,11.926585362667225
2022-10-19T02:42:54.751Z,11.952100752508363
2022-10-19T02:49:24.718Z,11.923287259615384
2022-10-19T02:55:54.679Z,11.970143316262543
2022-10-19T03:12:23.379Z,12.045584892349499
2022-10-19T03:18:52.559Z,12.032352633779265
2022-10-19T03:29:24.933Z,12.001113738503344
2022-10-19T03:35:53.325Z,11.994507734113714
2022-10-19T03:42:21.162Z,12.013903114548496
2022-10-19T03:48:49.357Z,12.00424919000836
2022-10-19T03:55:18.708Z,11.992882525083612
2022-10-19T04:04:35.275Z,12.016729593436455
2022-10-19T04:11:04.530Z,11.970116534280937
2022-10-19T04:17:34.048Z,11.966111648202341
2022-10-19T04:24:17.358Z,11.946604567307695
2022-10-19T04:30:45.148Z,11.979671822742475
2022-10-19T04:37:13.860Z,11.994837609740804
2022-10-19T04:43:43.317Z,11.98164977006689
2022-10-19T04:50:12.954Z,11.961241246864548
2022-10-19T05:01:58.378Z,11.984205816262543
2022-10-19T05:08:26.903Z,11.949602189590301
2022-10-19T05:14:55.649Z,11.914451818561874
2022-10-19T05:21:23.369Z,11.94782935305184
2022-10-19T05:28:05.206Z,11.931713132316053
2022-10-19T05:34:37.880Z,11.891882446697323
2022-10-19T05:41:13.629Z,11.898346702550166
2022-10-19T05:47:51.184Z,11.8858048965301
2022-10-19T05:54:26.378Z,11.92068418164716
2022-10-19T06:01:14.206Z,11.922091868729098
2022-10-19T06:07:57.220Z,11.927573029891304
2022-10-19T06:14:32.054Z,11.912288357023412
2022-10-19T06:21:23.856Z,11.955281929347827
2022-10-19T06:28:00.371Z,11.90750483382107
2022-10-19T06:34:33.705Z,11.930321775710702
2022-10-19T06:41:09.296Z,11.978061637750836
2022-10-19T06:47:39.564Z,12.032113555602008
2022-10-19T06:54:11.470Z,12.025829588210703
2022-10-19T07:00:48.594Z,12.0615234375
2022-10-19T07:16:37.797Z,12.181278741638797
2022-10-19T07:23:33.982Z,12.222351849916388
2022-10-19T07:35:32.922Z,12.338403401964882
2022-10-19T07:48:03.482Z,12.505253840928093
2022-10-19T07:54:31.283Z,12.576794392767557
2022-10-19T08:02:14.309Z,12.628972878344479
2022-10-19T08:08:42.362Z,12.697878344481603
2022-10-19T08:18:38.806Z,12.801173181438127
2022-10-19T08:29:14.402Z,12.893898933946488
2022-10-19T08:41:28.395Z,12.927683423913043
2022-10-19T08:47:59.419Z,12.963173468854517
2022-10-19T09:01:54.734Z,13.09201439694816
2022-10-19T09:08:22.274Z,13.270151808110368
2022-10-19T09:14:51.035Z,13.23301891722408
2022-10-19T09:21:19.572Z,13.334638247282609
2022-10-19T09:27:58.797Z,13.407305602006689
2022-10-19T09:38:35.568Z,13.527863059155518
2022-10-19T09:45:04.847Z,13.53193000104515
2022-10-19T09:51:32.629Z,13.430176761078595
2022-10-19T09:58:00.971Z,13.299415368938128
2022-10-19T10:04:29.366Z,13.27979070861204
2022-10-19T10:10:57.461Z,13.224039767976588
2022-10-19T10:21:12.560Z,13.141196566680602
2022-10-19T10:27:53.578Z,13.124511392140466
2022-10-19T10:34:28.325Z,13.30522901860368
2022-10-19T10:40:58.657Z,13.755381218645484
2022-10-19T10:47:27.593Z,13.89843554034281
2022-10-19T10:53:55.616Z,14.06975007838629
2022-10-19T11:00:23.489Z,14.115524404264214
2022-10-19T11:06:52.099Z,14.255966502926423
2022-10-19T11:13:19.363Z,14.17356814381271
2022-10-19T11:19:48.409Z,13.697244068770901
2022-10-19T11:26:26.050Z,13.576086303302676
2022-10-19T11:32:53.906Z,14.119394073996657
2022-10-19T11:40:06.918Z,14.570657399665551
2022-10-19T11:46:34.707Z,14.816014971780938
2022-10-19T12:05:40.851Z,14.236834369774247
2022-10-19T12:12:08.860Z,14.017715954222409
2022-10-19T12:21:57.501Z,13.914478600543479
2022-10-19T12:34:26.372Z,14.273647836538462
2022-10-19T12:40:54.232Z,14.523888874372908
2022-10-19T12:53:07.307Z,14.836945417015048
2022-10-19T12:59:36.029Z,14.610459343645484
2022-10-19T13:06:10.220Z,14.370861857232441
2022-10-19T13:12:46.513Z,14.139764710493314
2022-10-19T13:25:14.019Z,13.824749817098661
2022-10-19T13:31:47.081Z,13.831685043896321
2022-10-19T13:38:22.068Z,14.182610002090303
2022-10-19T13:44:56.699Z,14.329001619983279
2022-10-19T13:51:30.114Z,14.415450590510034
2022-10-19T13:58:00.479Z,14.376911318979934
2022-10-19T14:04:30.153Z,14.403359505643813
2022-10-19T14:11:01.029Z,14.457078281772576
2022-10-19T14:17:29.330Z,14.45115685096154
2022-10-19T14:24:04.852Z,14.381236282399668
2022-10-19T14:36:16.788Z,14.179488921404683
2022-10-19T14:42:45.245Z,14.063663383152171
2022-10-19T14:50:04.808Z,13.902228130225755
2022-10-19T14:56:32.835Z,13.801170568561874
2022-10-19T15:03:01.588Z,13.674316732859532
2022-10-19T15:09:37.587Z,13.602914663461538
2022-10-19T15:16:11.633Z,13.56089112144649
2022-10-19T15:22:39.359Z,13.460456077550166
2022-10-19T15:29:14.389Z,13.400253448996658
2022-10-19T15:35:43.781Z,13.283373615175586
2022-10-19T15:44:52.683Z,13.171517035953178
2022-10-19T15:51:21.868Z,13.044836956521742
2022-10-19T15:57:50.865Z,12.883832828177257
2022-10-19T16:04:20.042Z,12.687213890050169
2022-10-19T16:10:49.155Z,12.461754023829432
2022-10-19T16:21:49.988Z,12.148445338628763
2022-10-19T16:28:19.703Z,11.986650815217391
2022-10-19T16:35:43.454Z,11.823949623745818
2022-10-19T16:42:12.767Z,11.724376175794315
2022-10-19T16:48:39.932Z,11.563873719690637
2022-10-19T17:00:22.519Z,11.389986804974916
2022-10-19T17:09:40.334Z,11.303276546822742
2022-10-19T17:22:39.758Z,11.142132629598665
2022-10-19T17:29:13.112Z,11.078482310827761
2022-10-19T17:35:47.158Z,11.173711852006688
2022-10-19T17:42:22.248Z,11.125264553720736
2022-10-19T17:52:46.683Z,10.97478051839465
2022-10-19T17:59:14.761Z,10.874041727633777
2022-10-19T18:05:45.421Z,10.810529891304347
2022-10-19T18:16:20.326Z,10.746512463419734
2022-10-19T18:22:57.533Z,10.766314799331102
2022-10-19T18:29:33.699Z,10.786461381688962
2022-10-19T18:36:05.131Z,10.772711120401338
2022-10-19T18:45:14.792Z,10.715745845526756
2022-10-19T19:02:22.383Z,10.531682431020066
2022-10-19T19:08:57.906Z,10.477642924331105
2022-10-19T19:22:22.694Z,10.715685096153845
2022-10-19T19:29:16.503Z,10.822212714255853
2022-10-19T19:35:46.489Z,10.778483617265886
2022-10-19T19:42:14.867Z,10.74520929138796
2022-10-19T19:53:04.923Z,10.731649770066888
2022-10-19T19:59:34.777Z,10.691687134197323
2022-10-19T20:09:47.796Z,10.595047293060201
2022-10-19T20:16:17.068Z,10.625838733277593
2022-10-19T20:24:19.725Z,10.537044706312708
2022-10-19T20:30:48.540Z,10.45435043896321
2022-10-19T20:37:18.387Z,10.499557117474918
2022-10-19T20:43:47.758Z,10.494899012332777
2022-10-19T20:50:19.262Z,10.382615881061872
2022-10-19T21:00:57.321Z,10.266871995192309
2022-10-19T21:07:25.093Z,10.218732363085284
2022-10-19T21:13:55.419Z,10.1818503083194
2022-10-19T21:20:23.249Z,10.088413200250836
2022-10-19T21:27:06.790Z,9.985348949623747
2022-10-19T21:33:35.242Z,9.90607689694816
2022-10-19T21:44:36.599Z,9.901578830476588
2022-10-19T21:53:31.313Z,9.8111883361204
2022-10-19T22:05:28.185Z,9.566849785744147
2022-10-19T22:14:38.363Z,9.551943326714046
2022-10-19T22:21:08.762Z,9.60360380957358
2022-10-19T22:41:49.009Z,9.466679948787625
2022-10-19T23:00:00.588Z,9.216527095526756
2022-10-19T23:06:31.816Z,9.232169732441472
2022-10-19T23:13:02.251Z,9.31129873014214
2022-10-19T23:20:06.362Z,9.219388848244147
2022-10-19T23:26:51.966Z,9.096662703804347
2022-10-19T23:33:21.635Z,9.069490750418062
2022-10-19T23:39:50.002Z,9.145045986622073
2022-10-19T23:46:18.896Z,9.161920594690635
2022-10-19T23:59:16.473Z,8.859385451505018
